createdAt,value
2023-03-24T00:01:07.616Z,12.43
2023-03-24T00:06:13.740Z,12.25
2023-03-24T00:11:20.992Z,12.35
2023-03-24T00:16:24.861Z,12.35
2023-03-24T00:21:28.171Z,12.25
2023-03-24T00:26:32.503Z,12.29
2023-03-24T00:31:40.371Z,12.44
2023-03-24T00:36:43.417Z,12.62
2023-03-24T00:41:48.727Z,12.65
2023-03-24T00:46:55.775Z,12.51
2023-03-24T00:51:59.064Z,12.47
2023-03-24T00:57:03.895Z,12.58
2023-03-24T01:02:06.836Z,12.53
2023-03-24T01:07:10.958Z,12.56
2023-03-24T01:12:19.070Z,12.50
2023-03-24T01:17:22.818Z,12.53
2023-03-24T01:22:31.135Z,12.59
2023-03-24T01:27:35.449Z,12.55
2023-03-24T01:32:38.564Z,12.59
2023-03-24T01:37:41.740Z,12.63
2023-03-24T01:42:45.959Z,12.59
2023-03-24T01:47:49.167Z,12.61
2023-03-24T01:52:52.073Z,12.84
2023-03-24T01:57:58.299Z,12.62
2023-03-24T02:03:10.359Z,12.24
2023-03-24T02:08:24.669Z,12.22
2023-03-24T02:13:29.067Z,12.14
2023-03-24T02:18:44.807Z,12.17
2023-03-24T02:24:12.152Z,11.79
2023-03-24T02:29:48.494Z,11.72
2023-03-24T02:35:21.774Z,11.66
2023-03-24T02:40:31.786Z,11.65
2023-03-24T02:45:38.740Z,11.62
2023-03-24T02:50:44.297Z,11.40
2023-03-24T02:55:54.136Z,11.33
2023-03-24T03:00:59.643Z,11.22
2023-03-24T03:06:29.758Z,11.02
2023-03-24T03:11:34.040Z,10.89
2023-03-24T03:16:40.632Z,10.97
2023-03-24T03:21:45.551Z,10.88
2023-03-24T03:26:50.011Z,10.78
2023-03-24T03:32:00.999Z,10.71
2023-03-24T03:37:07.679Z,10.46
2023-03-24T03:42:11.962Z,10.48
2023-03-24T03:47:16.213Z,10.55
2023-03-24T03:52:22.223Z,10.34
2023-03-24T03:57:28.008Z,10.37
2023-03-24T04:03:05.359Z,10.35
2023-03-24T04:08:15.318Z,10.15
2023-03-24T04:13:37.540Z,10.25
2023-03-24T04:19:13.557Z,10.27
2023-03-24T04:24:26.889Z,10.16
2023-03-24T04:29:37.015Z,9.92
2023-03-24T04:34:42.259Z,10.16
2023-03-24T04:40:23.672Z,10.11
2023-03-24T04:45:27.900Z,10.08
2023-03-24T04:50:56.871Z,10.02
2023-03-24T04:56:27.353Z,10.16
2023-03-24T05:01:49.949Z,10.08
2023-03-24T05:07:15.486Z,10.07
2023-03-24T05:12:19.584Z,10.17
2023-03-24T05:17:42.902Z,10.00
2023-03-24T05:22:46.664Z,9.90
2023-03-24T05:27:50.249Z,9.89
2023-03-24T05:33:01.193Z,9.73
2023-03-24T05:38:04.618Z,9.77
2023-03-24T05:43:09.954Z,9.95
2023-03-24T05:48:18.203Z,9.90
2023-03-24T05:53:43.166Z,10.00
2023-03-24T05:58:51.462Z,10.14
2023-03-24T06:03:56.535Z,10.09
2023-03-24T06:09:02.461Z,9.97
2023-03-24T06:14:05.761Z,9.99
2023-03-24T06:19:22.593Z,10.08
2023-03-24T06:24:45.529Z,10.23
2023-03-24T06:29:48.697Z,10.23
2023-03-24T06:34:53.308Z,10.13
2023-03-24T06:40:22.343Z,10.74
2023-03-24T06:45:31.241Z,11.53
2023-03-24T06:50:35.895Z,11.62
2023-03-24T06:55:44.664Z,11.94
2023-03-24T07:00:50.402Z,11.46
2023-03-24T07:06:07.526Z,10.37
2023-03-24T07:11:10.613Z,10.34
2023-03-24T07:16:17.697Z,11.22
2023-03-24T07:21:24.034Z,11.27
2023-03-24T07:26:27.461Z,11.16
2023-03-24T07:31:38.781Z,11.25
2023-03-24T07:36:46.728Z,11.29
2023-03-24T07:41:52.722Z,10.91
2023-03-24T07:47:07.191Z,10.98
2023-03-24T07:52:11.550Z,11.53
2023-03-24T07:57:19.288Z,11.48
2023-03-24T08:02:22.590Z,11.50
2023-03-24T08:07:37.725Z,11.36
2023-03-24T08:12:40.690Z,11.22
2023-03-24T08:17:43.499Z,11.07
2023-03-24T08:22:49.724Z,11.21
2023-03-24T08:27:53.175Z,11.76
2023-03-24T08:32:57.676Z,11.70
2023-03-24T08:38:06.665Z,11.62
2023-03-24T08:43:15.088Z,11.66
2023-03-24T08:48:18.370Z,11.49
2023-03-24T08:53:22.639Z,11.73
2023-03-24T08:58:25.504Z,11.87
2023-03-24T09:03:28.736Z,12.08
2023-03-24T09:08:33.215Z,11.85
2023-03-24T09:13:36.062Z,12.44
2023-03-24T09:18:39.105Z,12.45
2023-03-24T09:23:43.360Z,11.71
2023-03-24T09:28:46.345Z,11.99
2023-03-24T09:33:49.248Z,12.07
2023-03-24T09:38:53.484Z,12.19
2023-03-24T09:43:59.788Z,12.41
2023-03-24T09:49:02.774Z,12.72
2023-03-24T09:54:13.693Z,12.55
2023-03-24T09:59:19.885Z,12.40
2023-03-24T10:04:26.247Z,12.46
2023-03-24T10:09:32.542Z,12.29
2023-03-24T10:14:48.771Z,12.57
2023-03-24T10:20:00.019Z,12.32
2023-03-24T10:25:09.236Z,12.66
2023-03-24T10:30:17.411Z,12.42
2023-03-24T10:35:22.906Z,12.25
2023-03-24T10:40:33.211Z,12.31
2023-03-24T10:45:39.516Z,11.96
2023-03-24T10:50:45.128Z,12.26
2023-03-24T10:55:50.743Z,12.54
2023-03-24T11:00:54.070Z,12.52
2023-03-24T11:06:01.340Z,12.69
2023-03-24T11:11:16.583Z,12.62
2023-03-24T11:16:19.812Z,12.90
2023-03-24T11:21:23.006Z,13.34
2023-03-24T11:26:31.701Z,13.25
2023-03-24T11:31:38.310Z,13.06
2023-03-24T11:36:46.864Z,12.84
2023-03-24T11:42:02.068Z,13.08
2023-03-24T11:47:09.506Z,13.08
2023-03-24T11:52:19.737Z,13.25
2023-03-24T11:57:35.071Z,13.76
2023-03-24T12:02:49.461Z,13.88
2023-03-24T12:08:02.026Z,13.74
2023-03-24T12:13:22.175Z,14.23
2023-03-24T12:18:44.322Z,14.41
2023-03-24T12:23:53.783Z,14.20
2023-03-24T12:29:10.614Z,13.81
2023-03-24T12:34:30.505Z,13.84
2023-03-24T12:39:37.330Z,14.16
2023-03-24T12:45:06.861Z,13.99
2023-03-24T12:50:25.639Z,13.63
2023-03-24T12:55:34.528Z,13.51
2023-03-24T13:00:42.496Z,13.74
2023-03-24T13:05:50.157Z,14.06
2023-03-24T13:10:54.567Z,14.06
2023-03-24T13:16:00.346Z,13.60
2023-03-24T13:21:05.714Z,13.01
2023-03-24T13:26:17.515Z,13.24
2023-03-24T13:31:23.021Z,13.56
2023-03-24T13:36:44.145Z,12.89
2023-03-24T13:41:51.097Z,13.37
2023-03-24T13:47:22.266Z,13.45
2023-03-24T13:52:29.850Z,13.02
2023-03-24T13:57:32.912Z,13.26
2023-03-24T14:02:47.022Z,13.35
2023-03-24T14:07:50.883Z,13.29
2023-03-24T14:12:54.592Z,13.14
2023-03-24T14:18:15.717Z,13.06
2023-03-24T14:23:24.972Z,13.15
2023-03-24T14:28:29.911Z,13.38
2023-03-24T14:33:34.164Z,12.98
2023-03-24T14:38:38.126Z,13.03
2023-03-24T14:43:55.925Z,13.20
2023-03-24T14:49:04.653Z,13.18
2023-03-24T14:54:13.539Z,13.97
2023-03-24T14:59:27.053Z,13.35
2023-03-24T15:04:33.603Z,13.18
2023-03-24T15:09:38.457Z,13.65
2023-03-24T15:14:41.427Z,13.50
2023-03-24T15:19:46.804Z,13.89
2023-03-24T15:24:51.169Z,13.03
2023-03-24T15:29:58.897Z,12.73
2023-03-24T15:35:06.544Z,13.03
2023-03-24T15:40:37.695Z,12.80
2023-03-24T15:45:51.015Z,12.56
2023-03-24T15:50:59.822Z,12.91
2023-03-24T15:56:07.121Z,12.53
2023-03-24T16:01:14.377Z,12.59
2023-03-24T16:06:29.575Z,12.98
2023-03-24T16:11:32.472Z,12.43
2023-03-24T16:16:38.661Z,12.21
2023-03-24T16:21:43.327Z,12.17
2023-03-24T16:26:46.501Z,12.28
2023-03-24T16:31:50.502Z,12.33
2023-03-24T16:36:56.111Z,12.40
2023-03-24T16:41:59.069Z,12.46
2023-03-24T16:47:02.051Z,12.36
2023-03-24T16:52:10.651Z,12.36
2023-03-24T16:57:13.641Z,11.79
2023-03-24T17:02:16.626Z,11.67
2023-03-24T17:07:20.976Z,11.73
2023-03-24T17:12:23.928Z,11.34
2023-03-24T17:17:26.924Z,11.25
2023-03-24T17:22:31.154Z,11.44
2023-03-24T17:27:34.098Z,11.20
2023-03-24T17:32:36.934Z,11.35
2023-03-24T17:37:41.864Z,11.16
2023-03-24T17:42:46.722Z,11.11
2023-03-24T17:47:49.738Z,11.27
2023-03-24T17:52:54.065Z,11.07
2023-03-24T17:57:56.995Z,11.10
2023-03-24T18:02:59.907Z,10.95
2023-03-24T18:08:04.219Z,10.87
2023-03-24T18:13:07.971Z,10.65
2023-03-24T18:18:11.153Z,10.78
2023-03-24T18:23:16.097Z,10.94
2023-03-24T18:28:18.904Z,11.01
2023-03-24T18:33:22.738Z,11.02
2023-03-24T18:38:26.936Z,10.60
2023-03-24T18:43:31.009Z,10.57
2023-03-24T18:48:33.864Z,10.28
2023-03-24T18:53:38.491Z,10.57
2023-03-24T18:58:43.235Z,10.44
2023-03-24T19:03:46.242Z,10.44
2023-03-24T19:08:53.329Z,10.44
2023-03-24T19:13:57.058Z,10.61
2023-03-24T19:19:00.259Z,10.46
2023-03-24T19:24:04.651Z,10.66
2023-03-24T19:29:07.509Z,10.46
2023-03-24T19:34:10.514Z,10.53
2023-03-24T19:39:14.766Z,10.30
2023-03-24T19:44:17.877Z,10.22
2023-03-24T19:49:21.359Z,10.46
2023-03-24T19:54:25.582Z,10.42
2023-03-24T19:59:28.465Z,10.37
2023-03-24T20:04:31.353Z,10.35
2023-03-24T20:09:35.852Z,10.27
2023-03-24T20:14:38.805Z,10.27
2023-03-24T20:19:41.701Z,10.23
2023-03-24T20:24:48.115Z,10.18
2023-03-24T20:29:51.018Z,10.07
2023-03-24T20:34:54.364Z,10.09
2023-03-24T20:39:59.306Z,10.04
2023-03-24T20:45:02.534Z,10.01
2023-03-24T20:50:06.907Z,10.03
2023-03-24T20:55:12.428Z,10.15
2023-03-24T21:00:15.995Z,10.06
2023-03-24T21:05:18.807Z,10.04
2023-03-24T21:10:23.162Z,10.27
2023-03-24T21:15:26.203Z,10.03
2023-03-24T21:20:30.752Z,10.20
2023-03-24T21:25:35.023Z,10.21
2023-03-24T21:30:38.107Z,10.01
2023-03-24T21:35:41.408Z,10.18
2023-03-24T21:40:46.491Z,9.82
2023-03-24T21:45:54.502Z,10.10
2023-03-24T21:50:58.729Z,9.90
2023-03-24T21:56:05.363Z,10.02
2023-03-24T22:01:08.826Z,9.92
2023-03-24T22:06:11.677Z,9.90
2023-03-24T22:11:18.654Z,9.78
2023-03-24T22:16:21.647Z,9.92
2023-03-24T22:21:24.504Z,10.00
2023-03-24T22:26:28.753Z,9.88
2023-03-24T22:31:31.567Z,9.79
2023-03-24T22:36:34.435Z,9.94
2023-03-24T22:41:38.706Z,9.83
2023-03-24T22:46:41.755Z,10.15
2023-03-24T22:51:44.714Z,10.11
2023-03-24T22:56:49.115Z,10.11
2023-03-24T23:02:02.387Z,9.89
2023-03-24T23:07:12.000Z,9.99
2023-03-24T23:12:16.390Z,9.68
2023-03-24T23:17:19.577Z,9.82
2023-03-24T23:22:23.077Z,9.95
2023-03-24T23:27:27.406Z,9.99
2023-03-24T23:32:33.586Z,9.75
2023-03-24T23:37:38.953Z,9.76
2023-03-24T23:42:45.352Z,9.74
2023-03-24T23:47:50.735Z,9.69
2023-03-24T23:52:53.603Z,9.87
2023-03-24T23:57:57.812Z,9.81
